sensor_id;sensor_type;location;lat;lon;timestamp;temperature;humidity
14585;DHT22;7379;51.506;11.876;2023-02-01T00:00:11;4.90;77.90
14585;DHT22;7379;51.506;11.876;2023-02-01T00:02:38;4.90;77.80
14585;DHT22;7379;51.506;11.876;2023-02-01T00:05:07;4.90;77.90
14585;DHT22;7379;51.506;11.876;2023-02-01T00:07:34;4.90;77.90
14585;DHT22;7379;51.506;11.876;2023-02-01T00:10:00;4.90;77.90
14585;DHT22;7379;51.506;11.876;2023-02-01T00:12:28;4.90;78.00
14585;DHT22;7379;51.506;11.876;2023-02-01T00:14:57;4.90;77.90
14585;DHT22;7379;51.506;11.876;2023-02-01T00:17:24;4.90;78.00
14585;DHT22;7379;51.506;11.876;2023-02-01T00:19:51;4.90;78.00
14585;DHT22;7379;51.506;11.876;2023-02-01T00:22:18;4.90;78.00
14585;DHT22;7379;51.506;11.876;2023-02-01T00:24:44;4.90;78.00
14585;DHT22;7379;51.506;11.876;2023-02-01T00:27:11;4.90;78.70
14585;DHT22;7379;51.506;11.876;2023-02-01T00:29:43;4.90;78.00
14585;DHT22;7379;51.506;11.876;2023-02-01T00:32:11;4.90;77.90
14585;DHT22;7379;51.506;11.876;2023-02-01T00:34:38;4.90;77.90
14585;DHT22;7379;51.506;11.876;2023-02-01T00:37:05;4.90;78.00
14585;DHT22;7379;51.506;11.876;2023-02-01T00:39:32;4.90;78.00
14585;DHT22;7379;51.506;11.876;2023-02-01T00:42:00;4.90;78.00
14585;DHT22;7379;51.506;11.876;2023-02-01T00:44:27;4.90;77.90
14585;DHT22;7379;51.506;11.876;2023-02-01T00:46:58;4.90;77.90
14585;DHT22;7379;51.506;11.876;2023-02-01T00:49:26;4.90;77.90
14585;DHT22;7379;51.506;11.876;2023-02-01T00:51:53;4.90;77.90
14585;DHT22;7379;51.506;11.876;2023-02-01T00:54:20;4.90;77.90
14585;DHT22;7379;51.506;11.876;2023-02-01T00:56:47;4.90;77.80
14585;DHT22;7379;51.506;11.876;2023-02-01T00:59:14;4.90;77.80
14585;DHT22;7379;51.506;11.876;2023-02-01T01:01:41;4.90;77.80
14585;DHT22;7379;51.506;11.876;2023-02-01T01:04:08;4.90;77.80
14585;DHT22;7379;51.506;11.876;2023-02-01T01:06:36;4.90;77.70
14585;DHT22;7379;51.506;11.876;2023-02-01T01:09:05;4.80;77.70
14585;DHT22;7379;51.506;11.876;2023-02-01T01:11:35;4.90;77.70
14585;DHT22;7379;51.506;11.876;2023-02-01T01:14:04;4.80;77.60
14585;DHT22;7379;51.506;11.876;2023-02-01T01:16:32;4.80;77.70
14585;DHT22;7379;51.506;11.876;2023-02-01T01:18:59;4.80;77.70
14585;DHT22;7379;51.506;11.876;2023-02-01T01:21:26;4.90;77.80
14585;DHT22;7379;51.506;11.876;2023-02-01T01:23:55;4.80;77.70
14585;DHT22;7379;51.506;11.876;2023-02-01T01:26:24;4.80;77.70
14585;DHT22;7379;51.506;11.876;2023-02-01T01:28:51;4.80;77.70
14585;DHT22;7379;51.506;11.876;2023-02-01T01:31:19;4.80;77.70
14585;DHT22;7379;51.506;11.876;2023-02-01T01:33:51;4.80;77.60
14585;DHT22;7379;51.506;11.876;2023-02-01T01:36:18;4.80;77.60
14585;DHT22;7379;51.506;11.876;2023-02-01T01:38:45;4.80;77.70
14585;DHT22;7379;51.506;11.876;2023-02-01T01:41:18;4.80;77.60
14585;DHT22;7379;51.506;11.876;2023-02-01T01:43:53;4.80;77.70
14585;DHT22;7379;51.506;11.876;2023-02-01T01:46:22;4.80;77.70
14585;DHT22;7379;51.506;11.876;2023-02-01T01:48:52;4.80;77.70
14585;DHT22;7379;51.506;11.876;2023-02-01T01:51:24;4.80;77.70
14585;DHT22;7379;51.506;11.876;2023-02-01T01:53:56;4.80;77.70
14585;DHT22;7379;51.506;11.876;2023-02-01T01:56:26;4.80;77.70
14585;DHT22;7379;51.506;11.876;2023-02-01T01:58:53;4.80;77.80
14585;DHT22;7379;51.506;11.876;2023-02-01T02:01:20;4.80;77.80
14585;DHT22;7379;51.506;11.876;2023-02-01T02:03:47;4.80;77.70
14585;DHT22;7379;51.506;11.876;2023-02-01T02:06:22;4.80;77.70
14585;DHT22;7379;51.506;11.876;2023-02-01T02:08:49;4.80;77.70
14585;DHT22;7379;51.506;11.876;2023-02-01T02:11:17;4.80;77.70
14585;DHT22;7379;51.506;11.876;2023-02-01T02:13:48;4.70;77.60
14585;DHT22;7379;51.506;11.876;2023-02-01T02:22:25;4.70;77.60
14585;DHT22;7379;51.506;11.876;2023-02-01T02:28:06;4.80;77.60
14585;DHT22;7379;51.506;11.876;2023-02-01T02:33:45;4.80;77.60
14585;DHT22;7379;51.506;11.876;2023-02-01T02:36:19;4.80;77.60
14585;DHT22;7379;51.506;11.876;2023-02-01T02:38:54;4.80;77.60
14585;DHT22;7379;51.506;11.876;2023-02-01T02:41:27;4.70;77.60
14585;DHT22;7379;51.506;11.876;2023-02-01T02:44:20;4.70;77.60
14585;DHT22;7379;51.506;11.876;2023-02-01T02:47:13;4.70;77.50
14585;DHT22;7379;51.506;11.876;2023-02-01T02:49:58;4.70;77.50
14585;DHT22;7379;51.506;11.876;2023-02-01T02:52:48;4.80;77.60
14585;DHT22;7379;51.506;11.876;2023-02-01T02:55:32;4.70;77.60
14585;DHT22;7379;51.506;11.876;2023-02-01T02:58:03;4.70;77.60
14585;DHT22;7379;51.506;11.876;2023-02-01T03:00:48;4.80;77.60
14585;DHT22;7379;51.506;11.876;2023-02-01T03:03:36;4.70;77.60
14585;DHT22;7379;51.506;11.876;2023-02-01T03:06:23;4.80;77.60
14585;DHT22;7379;51.506;11.876;2023-02-01T03:08:50;4.70;78.30
14585;DHT22;7379;51.506;11.876;2023-02-01T03:11:20;4.70;77.60
14585;DHT22;7379;51.506;11.876;2023-02-01T03:13:52;4.70;77.60
14585;DHT22;7379;51.506;11.876;2023-02-01T03:16:21;4.70;77.60
14585;DHT22;7379;51.506;11.876;2023-02-01T03:18:54;4.70;77.60
14585;DHT22;7379;51.506;11.876;2023-02-01T03:21:28;4.70;77.60
14585;DHT22;7379;51.506;11.876;2023-02-01T03:23:59;4.70;77.60
14585;DHT22;7379;51.506;11.876;2023-02-01T03:26:29;4.70;77.60
14585;DHT22;7379;51.506;11.876;2023-02-01T03:29:02;4.70;77.60
14585;DHT22;7379;51.506;11.876;2023-02-01T03:31:32;4.80;77.60
14585;DHT22;7379;51.506;11.876;2023-02-01T03:33:59;4.80;77.60
14585;DHT22;7379;51.506;11.876;2023-02-01T03:36:31;4.70;77.50
14585;DHT22;7379;51.506;11.876;2023-02-01T03:39:05;4.70;77.40
14585;DHT22;7379;51.506;11.876;2023-02-01T03:41:36;4.70;77.40
14585;DHT22;7379;51.506;11.876;2023-02-01T03:44:09;4.70;77.40
14585;DHT22;7379;51.506;11.876;2023-02-01T03:46:41;4.70;77.30
14585;DHT22;7379;51.506;11.876;2023-02-01T03:49:11;4.70;77.40
14585;DHT22;7379;51.506;11.876;2023-02-01T03:51:42;4.80;77.40
14585;DHT22;7379;51.506;11.876;2023-02-01T03:54:11;4.70;77.30
14585;DHT22;7379;51.506;11.876;2023-02-01T03:56:42;4.70;77.20
14585;DHT22;7379;51.506;11.876;2023-02-01T03:59:13;4.70;77.20
14585;DHT22;7379;51.506;11.876;2023-02-01T04:01:40;4.70;77.20
14585;DHT22;7379;51.506;11.876;2023-02-01T04:04:07;4.70;77.20
14585;DHT22;7379;51.506;11.876;2023-02-01T04:06:34;4.80;77.20
14585;DHT22;7379;51.506;11.876;2023-02-01T04:09:03;4.80;77.20
14585;DHT22;7379;51.506;11.876;2023-02-01T04:11:30;4.80;77.20
14585;DHT22;7379;51.506;11.876;2023-02-01T04:13:56;4.80;77.20
14585;DHT22;7379;51.506;11.876;2023-02-01T04:16:23;4.80;77.20
14585;DHT22;7379;51.506;11.876;2023-02-01T04:18:50;4.80;77.20
14585;DHT22;7379;51.506;11.876;2023-02-01T04:21:17;4.80;77.20
14585;DHT22;7379;51.506;11.876;2023-02-01T04:23:44;4.80;77.10
14585;DHT22;7379;51.506;11.876;2023-02-01T04:26:12;4.80;77.10
14585;DHT22;7379;51.506;11.876;2023-02-01T04:28:38;4.80;77.10
14585;DHT22;7379;51.506;11.876;2023-02-01T04:31:05;4.80;77.10
14585;DHT22;7379;51.506;11.876;2023-02-01T04:33:32;4.80;77.00
14585;DHT22;7379;51.506;11.876;2023-02-01T04:35:59;4.80;77.00
14585;DHT22;7379;51.506;11.876;2023-02-01T04:38:26;4.80;77.00
14585;DHT22;7379;51.506;11.876;2023-02-01T04:40:54;4.80;76.90
14585;DHT22;7379;51.506;11.876;2023-02-01T04:43:22;4.80;76.90
14585;DHT22;7379;51.506;11.876;2023-02-01T04:45:50;4.80;77.60
14585;DHT22;7379;51.506;11.876;2023-02-01T04:48:17;4.80;76.90
14585;DHT22;7379;51.506;11.876;2023-02-01T04:50:45;4.80;76.80
14585;DHT22;7379;51.506;11.876;2023-02-01T04:53:13;4.80;76.80
14585;DHT22;7379;51.506;11.876;2023-02-01T04:55:40;4.80;76.80
14585;DHT22;7379;51.506;11.876;2023-02-01T04:58:06;4.80;76.80
14585;DHT22;7379;51.506;11.876;2023-02-01T05:00:35;4.80;76.80
14585;DHT22;7379;51.506;11.876;2023-02-01T05:03:02;4.80;76.70
14585;DHT22;7379;51.506;11.876;2023-02-01T05:05:29;4.70;76.60
14585;DHT22;7379;51.506;11.876;2023-02-01T05:07:56;4.80;76.80
14585;DHT22;7379;51.506;11.876;2023-02-01T05:10:22;4.80;76.70
14585;DHT22;7379;51.506;11.876;2023-02-01T05:12:49;4.80;76.60
14585;DHT22;7379;51.506;11.876;2023-02-01T05:15:35;4.70;76.50
14585;DHT22;7379;51.506;11.876;2023-02-01T05:18:02;4.80;76.60
14585;DHT22;7379;51.506;11.876;2023-02-01T05:20:29;4.70;76.50
14585;DHT22;7379;51.506;11.876;2023-02-01T05:22:56;4.70;76.60
14585;DHT22;7379;51.506;11.876;2023-02-01T05:25:23;4.70;76.70
14585;DHT22;7379;51.506;11.876;2023-02-01T05:27:49;4.70;76.70
14585;DHT22;7379;51.506;11.876;2023-02-01T05:30:17;4.70;76.80
14585;DHT22;7379;51.506;11.876;2023-02-01T05:32:45;4.70;76.80
14585;DHT22;7379;51.506;11.876;2023-02-01T05:35:11;4.70;76.80
14585;DHT22;7379;51.506;11.876;2023-02-01T05:37:38;4.70;76.80
14585;DHT22;7379;51.506;11.876;2023-02-01T05:40:06;4.70;76.80
14585;DHT22;7379;51.506;11.876;2023-02-01T05:42:33;4.70;76.90
14585;DHT22;7379;51.506;11.876;2023-02-01T05:45:00;4.70;76.90
14585;DHT22;7379;51.506;11.876;2023-02-01T05:47:27;4.70;76.90
14585;DHT22;7379;51.506;11.876;2023-02-01T05:49:55;4.70;76.90
14585;DHT22;7379;51.506;11.876;2023-02-01T05:52:22;4.70;76.90
14585;DHT22;7379;51.506;11.876;2023-02-01T05:54:49;4.70;76.90
14585;DHT22;7379;51.506;11.876;2023-02-01T05:57:16;4.70;77.00
14585;DHT22;7379;51.506;11.876;2023-02-01T05:59:43;4.70;77.00
14585;DHT22;7379;51.506;11.876;2023-02-01T06:02:11;4.70;77.00
14585;DHT22;7379;51.506;11.876;2023-02-01T06:04:38;4.70;77.00
14585;DHT22;7379;51.506;11.876;2023-02-01T06:07:06;4.70;77.10
14585;DHT22;7379;51.506;11.876;2023-02-01T06:09:34;4.70;77.10
14585;DHT22;7379;51.506;11.876;2023-02-01T06:12:01;4.70;77.10
14585;DHT22;7379;51.506;11.876;2023-02-01T06:14:28;4.70;77.10
14585;DHT22;7379;51.506;11.876;2023-02-01T06:16:55;4.70;77.10
14585;DHT22;7379;51.506;11.876;2023-02-01T06:19:22;4.70;77.90
14585;DHT22;7379;51.506;11.876;2023-02-01T06:21:49;4.60;77.00
14585;DHT22;7379;51.506;11.876;2023-02-01T06:24:18;4.60;77.00
14585;DHT22;7379;51.506;11.876;2023-02-01T06:26:45;4.70;77.20
14585;DHT22;7379;51.506;11.876;2023-02-01T06:29:12;4.70;77.10
14585;DHT22;7379;51.506;11.876;2023-02-01T06:31:39;4.70;77.20
14585;DHT22;7379;51.506;11.876;2023-02-01T06:34:07;4.70;77.10
14585;DHT22;7379;51.506;11.876;2023-02-01T06:36:34;4.70;77.10
14585;DHT22;7379;51.506;11.876;2023-02-01T06:39:01;4.70;77.10
14585;DHT22;7379;51.506;11.876;2023-02-01T06:41:29;4.70;77.10
14585;DHT22;7379;51.506;11.876;2023-02-01T06:43:56;4.70;77.10
14585;DHT22;7379;51.506;11.876;2023-02-01T06:46:23;4.70;77.00
14585;DHT22;7379;51.506;11.876;2023-02-01T06:48:50;4.70;77.00
14585;DHT22;7379;51.506;11.876;2023-02-01T06:51:22;4.70;77.00
14585;DHT22;7379;51.506;11.876;2023-02-01T06:53:49;4.70;77.00
14585;DHT22;7379;51.506;11.876;2023-02-01T06:56:16;4.70;77.00
14585;DHT22;7379;51.506;11.876;2023-02-01T06:58:44;4.70;77.10
14585;DHT22;7379;51.506;11.876;2023-02-01T07:01:12;4.70;77.00
14585;DHT22;7379;51.506;11.876;2023-02-01T07:03:39;4.70;77.10
14585;DHT22;7379;51.506;11.876;2023-02-01T07:06:06;4.70;77.10
14585;DHT22;7379;51.506;11.876;2023-02-01T07:08:35;4.70;77.00
14585;DHT22;7379;51.506;11.876;2023-02-01T07:11:02;4.70;77.70
14585;DHT22;7379;51.506;11.876;2023-02-01T07:13:29;4.70;77.00
14585;DHT22;7379;51.506;11.876;2023-02-01T07:15:59;4.70;77.00
14585;DHT22;7379;51.506;11.876;2023-02-01T07:18:27;4.70;76.90
14585;DHT22;7379;51.506;11.876;2023-02-01T07:20:54;4.70;77.00
14585;DHT22;7379;51.506;11.876;2023-02-01T07:23:21;4.70;76.90
14585;DHT22;7379;51.506;11.876;2023-02-01T07:25:52;4.70;76.90
14585;DHT22;7379;51.506;11.876;2023-02-01T07:28:19;4.70;76.90
14585;DHT22;7379;51.506;11.876;2023-02-01T07:30:45;4.70;76.90
14585;DHT22;7379;51.506;11.876;2023-02-01T07:33:18;4.70;76.90
14585;DHT22;7379;51.506;11.876;2023-02-01T07:35:45;4.70;77.70
14585;DHT22;7379;51.506;11.876;2023-02-01T07:38:12;4.70;77.00
14585;DHT22;7379;51.506;11.876;2023-02-01T07:40:39;4.70;77.00
14585;DHT22;7379;51.506;11.876;2023-02-01T07:43:06;4.70;77.00
14585;DHT22;7379;51.506;11.876;2023-02-01T07:45:34;4.80;77.00
14585;DHT22;7379;51.506;11.876;2023-02-01T07:48:01;4.80;77.10
14585;DHT22;7379;51.506;11.876;2023-02-01T07:50:30;4.80;77.10
14585;DHT22;7379;51.506;11.876;2023-02-01T07:52:58;4.80;77.00
14585;DHT22;7379;51.506;11.876;2023-02-01T07:55:26;4.80;77.10
14585;DHT22;7379;51.506;11.876;2023-02-01T07:57:56;4.80;77.10
14585;DHT22;7379;51.506;11.876;2023-02-01T08:00:22;4.80;77.20
14585;DHT22;7379;51.506;11.876;2023-02-01T08:03:07;4.80;77.20
14585;DHT22;7379;51.506;11.876;2023-02-01T08:05:35;4.80;77.30
14585;DHT22;7379;51.506;11.876;2023-02-01T08:08:02;4.80;77.40
14585;DHT22;7379;51.506;11.876;2023-02-01T08:10:29;4.80;77.40
14585;DHT22;7379;51.506;11.876;2023-02-01T08:12:58;4.80;77.50
14585;DHT22;7379;51.506;11.876;2023-02-01T08:15:25;4.80;77.50
14585;DHT22;7379;51.506;11.876;2023-02-01T08:17:52;4.80;77.60
14585;DHT22;7379;51.506;11.876;2023-02-01T08:20:20;4.80;77.70
14585;DHT22;7379;51.506;11.876;2023-02-01T08:22:50;4.80;77.80
14585;DHT22;7379;51.506;11.876;2023-02-01T08:25:17;4.80;77.90
14585;DHT22;7379;51.506;11.876;2023-02-01T08:27:44;4.80;78.00
14585;DHT22;7379;51.506;11.876;2023-02-01T08:30:12;4.80;78.90
14585;DHT22;7379;51.506;11.876;2023-02-01T08:32:39;4.80;78.30
14585;DHT22;7379;51.506;11.876;2023-02-01T08:35:07;4.80;78.40
14585;DHT22;7379;51.506;11.876;2023-02-01T08:37:34;4.80;78.40
14585;DHT22;7379;51.506;11.876;2023-02-01T08:40:03;4.80;78.50
14585;DHT22;7379;51.506;11.876;2023-02-01T08:42:31;4.80;78.60
14585;DHT22;7379;51.506;11.876;2023-02-01T08:45:15;4.80;78.70
14585;DHT22;7379;51.506;11.876;2023-02-01T08:47:42;4.80;78.70
14585;DHT22;7379;51.506;11.876;2023-02-01T08:50:10;4.80;78.70
14585;DHT22;7379;51.506;11.876;2023-02-01T08:52:37;4.80;78.80
14585;DHT22;7379;51.506;11.876;2023-02-01T08:55:06;4.80;78.80
14585;DHT22;7379;51.506;11.876;2023-02-01T08:57:33;4.80;78.80
14585;DHT22;7379;51.506;11.876;2023-02-01T09:00:00;4.80;78.90
14585;DHT22;7379;51.506;11.876;2023-02-01T09:02:27;4.80;79.00
14585;DHT22;7379;51.506;11.876;2023-02-01T09:04:55;4.80;79.80
14585;DHT22;7379;51.506;11.876;2023-02-01T09:07:22;4.80;79.20
14585;DHT22;7379;51.506;11.876;2023-02-01T09:09:49;4.80;79.20
14585;DHT22;7379;51.506;11.876;2023-02-01T09:12:17;4.80;79.30
14585;DHT22;7379;51.506;11.876;2023-02-01T09:14:44;4.80;79.30
14585;DHT22;7379;51.506;11.876;2023-02-01T09:17:11;4.80;79.40
14585;DHT22;7379;51.506;11.876;2023-02-01T09:19:38;4.80;79.40
14585;DHT22;7379;51.506;11.876;2023-02-01T09:22:05;4.80;79.60
14585;DHT22;7379;51.506;11.876;2023-02-01T09:24:32;4.80;79.90
14585;DHT22;7379;51.506;11.876;2023-02-01T09:26:59;4.80;80.10
14585;DHT22;7379;51.506;11.876;2023-02-01T09:29:27;4.80;80.20
14585;DHT22;7379;51.506;11.876;2023-02-01T09:31:54;4.80;80.20
14585;DHT22;7379;51.506;11.876;2023-02-01T09:34:21;4.80;80.30
14585;DHT22;7379;51.506;11.876;2023-02-01T09:36:48;4.90;80.40
14585;DHT22;7379;51.506;11.876;2023-02-01T09:39:14;4.90;80.60
14585;DHT22;7379;51.506;11.876;2023-02-01T09:41:48;4.90;80.70
14585;DHT22;7379;51.506;11.876;2023-02-01T09:44:29;4.90;80.80
14585;DHT22;7379;51.506;11.876;2023-02-01T09:46:59;4.90;80.80
14585;DHT22;7379;51.506;11.876;2023-02-01T09:49:29;4.90;80.80
14585;DHT22;7379;51.506;11.876;2023-02-01T09:51:57;4.90;80.70
14585;DHT22;7379;51.506;11.876;2023-02-01T09:54:27;4.90;80.70
14585;DHT22;7379;51.506;11.876;2023-02-01T09:56:58;4.90;80.70
14585;DHT22;7379;51.506;11.876;2023-02-01T09:59:34;5.00;80.70
14585;DHT22;7379;51.506;11.876;2023-02-01T10:02:12;5.00;80.70
14585;DHT22;7379;51.506;11.876;2023-02-01T10:04:40;5.00;80.70
14585;DHT22;7379;51.506;11.876;2023-02-01T10:07:21;5.00;80.60
14585;DHT22;7379;51.506;11.876;2023-02-01T10:09:58;5.00;80.70
14585;DHT22;7379;51.506;11.876;2023-02-01T10:12:59;5.00;80.70
14585;DHT22;7379;51.506;11.876;2023-02-01T10:15:49;5.00;80.70
14585;DHT22;7379;51.506;11.876;2023-02-01T10:18:34;5.00;80.70
14585;DHT22;7379;51.506;11.876;2023-02-01T10:21:10;5.00;80.70
14585;DHT22;7379;51.506;11.876;2023-02-01T10:23:52;5.00;80.60
14585;DHT22;7379;51.506;11.876;2023-02-01T10:26:22;5.10;80.70
14585;DHT22;7379;51.506;11.876;2023-02-01T10:28:51;5.10;80.80
14585;DHT22;7379;51.506;11.876;2023-02-01T10:31:21;5.10;80.80
14585;DHT22;7379;51.506;11.876;2023-02-01T10:33:51;5.20;80.80
14585;DHT22;7379;51.506;11.876;2023-02-01T10:36:22;5.20;80.60
14585;DHT22;7379;51.506;11.876;2023-02-01T10:38:50;5.20;80.50
14585;DHT22;7379;51.506;11.876;2023-02-01T10:41:19;5.20;80.20
14585;DHT22;7379;51.506;11.876;2023-02-01T10:43:52;5.20;80.00
14585;DHT22;7379;51.506;11.876;2023-02-01T10:46:22;5.20;80.00
14585;DHT22;7379;51.506;11.876;2023-02-01T10:48:50;5.20;80.00
14585;DHT22;7379;51.506;11.876;2023-02-01T10:51:22;5.20;80.10
14585;DHT22;7379;51.506;11.876;2023-02-01T10:53:54;5.20;80.00
14585;DHT22;7379;51.506;11.876;2023-02-01T10:56:23;5.20;79.90
14585;DHT22;7379;51.506;11.876;2023-02-01T10:58:51;5.20;79.90
14585;DHT22;7379;51.506;11.876;2023-02-01T11:01:21;5.20;79.90
14585;DHT22;7379;51.506;11.876;2023-02-01T11:03:53;5.30;79.80
14585;DHT22;7379;51.506;11.876;2023-02-01T11:06:28;5.30;79.70
14585;DHT22;7379;51.506;11.876;2023-02-01T11:08:57;5.30;79.60
14585;DHT22;7379;51.506;11.876;2023-02-01T11:11:25;5.30;79.60
14585;DHT22;7379;51.506;11.876;2023-02-01T11:13:54;5.30;79.60
14585;DHT22;7379;51.506;11.876;2023-02-01T11:16:29;5.30;79.50
14585;DHT22;7379;51.506;11.876;2023-02-01T11:18:58;5.30;79.50
14585;DHT22;7379;51.506;11.876;2023-02-01T11:21:26;5.40;79.60
14585;DHT22;7379;51.506;11.876;2023-02-01T11:23:53;5.40;79.50
14585;DHT22;7379;51.506;11.876;2023-02-01T11:26:22;5.40;79.40
14585;DHT22;7379;51.506;11.876;2023-02-01T11:28:56;5.40;79.20
14585;DHT22;7379;51.506;11.876;2023-02-01T11:31:26;5.40;79.20
14585;DHT22;7379;51.506;11.876;2023-02-01T11:33:57;5.40;79.20
14585;DHT22;7379;51.506;11.876;2023-02-01T11:36:26;5.50;79.20
14585;DHT22;7379;51.506;11.876;2023-02-01T11:39:08;5.50;79.00
14585;DHT22;7379;51.506;11.876;2023-02-01T11:41:41;5.50;79.00
14585;DHT22;7379;51.506;11.876;2023-02-01T11:44:20;5.50;79.00
14585;DHT22;7379;51.506;11.876;2023-02-01T11:46:48;5.50;78.80
14585;DHT22;7379;51.506;11.876;2023-02-01T11:49:21;5.50;78.60
14585;DHT22;7379;51.506;11.876;2023-02-01T11:52:12;5.50;78.50
14585;DHT22;7379;51.506;11.876;2023-02-01T11:54:54;5.50;78.40
14585;DHT22;7379;51.506;11.876;2023-02-01T11:57:37;5.50;78.30
14585;DHT22;7379;51.506;11.876;2023-02-01T12:00:26;5.60;78.30
14585;DHT22;7379;51.506;11.876;2023-02-01T12:03:09;5.60;78.20
14585;DHT22;7379;51.506;11.876;2023-02-01T12:05:48;5.60;78.00
14585;DHT22;7379;51.506;11.876;2023-02-01T12:08:30;5.60;78.40
14585;DHT22;7379;51.506;11.876;2023-02-01T12:11:18;5.60;77.50
14585;DHT22;7379;51.506;11.876;2023-02-01T12:13:55;5.70;77.40
14585;DHT22;7379;51.506;11.876;2023-02-01T12:16:31;5.70;77.10
14585;DHT22;7379;51.506;11.876;2023-02-01T12:19:25;5.70;76.90
14585;DHT22;7379;51.506;11.876;2023-02-01T12:22:04;5.70;76.60
14585;DHT22;7379;51.506;11.876;2023-02-01T12:27:53;5.70;76.10
14585;DHT22;7379;51.506;11.876;2023-02-01T12:30:47;5.80;75.80
14585;DHT22;7379;51.506;11.876;2023-02-01T12:33:23;5.80;75.50
14585;DHT22;7379;51.506;11.876;2023-02-01T12:36:08;5.80;75.20
14585;DHT22;7379;51.506;11.876;2023-02-01T12:38:44;5.80;74.90
14585;DHT22;7379;51.506;11.876;2023-02-01T12:44:04;5.80;74.50
14585;DHT22;7379;51.506;11.876;2023-02-01T12:46:39;5.80;74.50
14585;DHT22;7379;51.506;11.876;2023-02-01T12:49:11;5.80;74.60
14585;DHT22;7379;51.506;11.876;2023-02-01T12:51:42;5.80;74.70
14585;DHT22;7379;51.506;11.876;2023-02-01T12:54:15;5.80;74.60
14585;DHT22;7379;51.506;11.876;2023-02-01T12:56:49;5.80;74.40
14585;DHT22;7379;51.506;11.876;2023-02-01T12:59:22;5.80;74.10
14585;DHT22;7379;51.506;11.876;2023-02-01T13:01:54;5.80;73.90
14585;DHT22;7379;51.506;11.876;2023-02-01T13:04:29;5.90;74.20
14585;DHT22;7379;51.506;11.876;2023-02-01T13:07:04;5.80;74.10
14585;DHT22;7379;51.506;11.876;2023-02-01T13:09:38;5.90;74.00
14585;DHT22;7379;51.506;11.876;2023-02-01T13:12:12;5.90;73.80
14585;DHT22;7379;51.506;11.876;2023-02-01T13:14:42;5.90;73.80
14585;DHT22;7379;51.506;11.876;2023-02-01T13:17:15;5.90;73.70
14585;DHT22;7379;51.506;11.876;2023-02-01T13:19:49;5.90;73.80
14585;DHT22;7379;51.506;11.876;2023-02-01T13:22:21;5.90;73.80
14585;DHT22;7379;51.506;11.876;2023-02-01T13:24:53;5.90;73.80
14585;DHT22;7379;51.506;11.876;2023-02-01T13:27:21;5.90;73.80
14585;DHT22;7379;51.506;11.876;2023-02-01T13:29:55;5.90;73.70
14585;DHT22;7379;51.506;11.876;2023-02-01T13:32:48;5.90;73.40
14585;DHT22;7379;51.506;11.876;2023-02-01T13:38:54;5.90;73.40
14585;DHT22;7379;51.506;11.876;2023-02-01T13:41:30;5.90;73.40
14585;DHT22;7379;51.506;11.876;2023-02-01T13:44:01;6.00;73.30
14585;DHT22;7379;51.506;11.876;2023-02-01T13:46:29;6.00;72.90
14585;DHT22;7379;51.506;11.876;2023-02-01T13:48:59;6.00;72.90
14585;DHT22;7379;51.506;11.876;2023-02-01T13:51:36;6.10;73.00
14585;DHT22;7379;51.506;11.876;2023-02-01T13:54:04;6.10;73.00
14585;DHT22;7379;51.506;11.876;2023-02-01T13:56:41;6.10;72.90
14585;DHT22;7379;51.506;11.876;2023-02-01T13:59:48;6.10;72.80
14585;DHT22;7379;51.506;11.876;2023-02-01T14:02:59;6.10;72.80
14585;DHT22;7379;51.506;11.876;2023-02-01T14:08:46;6.10;72.90
14585;DHT22;7379;51.506;11.876;2023-02-01T14:11:42;6.10;72.90
14585;DHT22;7379;51.506;11.876;2023-02-01T14:14:42;6.10;72.80
14585;DHT22;7379;51.506;11.876;2023-02-01T14:17:31;6.10;72.50
14585;DHT22;7379;51.506;11.876;2023-02-01T14:23:21;6.10;72.30
14585;DHT22;7379;51.506;11.876;2023-02-01T14:26:11;6.10;72.20
14585;DHT22;7379;51.506;11.876;2023-02-01T14:31:42;6.10;72.30
14585;DHT22;7379;51.506;11.876;2023-02-01T14:34:17;6.20;72.40
14585;DHT22;7379;51.506;11.876;2023-02-01T14:36:49;6.20;72.60
14585;DHT22;7379;51.506;11.876;2023-02-01T14:39:35;6.20;72.80
14585;DHT22;7379;51.506;11.876;2023-02-01T14:42:06;6.20;72.90
14585;DHT22;7379;51.506;11.876;2023-02-01T14:44:42;6.20;73.00
14585;DHT22;7379;51.506;11.876;2023-02-01T14:47:31;6.20;73.30
14585;DHT22;7379;51.506;11.876;2023-02-01T14:53:14;6.10;74.10
14585;DHT22;7379;51.506;11.876;2023-02-01T14:55:44;6.10;74.50
14585;DHT22;7379;51.506;11.876;2023-02-01T14:58:16;6.10;74.70
14585;DHT22;7379;51.506;11.876;2023-02-01T15:00:51;6.10;75.00
14585;DHT22;7379;51.506;11.876;2023-02-01T15:03:32;6.10;75.20
14585;DHT22;7379;51.506;11.876;2023-02-01T15:06:01;6.10;75.40
14585;DHT22;7379;51.506;11.876;2023-02-01T15:08:33;6.10;75.50
14585;DHT22;7379;51.506;11.876;2023-02-01T15:11:04;6.10;75.50
14585;DHT22;7379;51.506;11.876;2023-02-01T15:13:33;6.10;75.60
14585;DHT22;7379;51.506;11.876;2023-02-01T15:16:02;6.10;75.60
14585;DHT22;7379;51.506;11.876;2023-02-01T15:18:30;6.10;75.60
14585;DHT22;7379;51.506;11.876;2023-02-01T15:20:57;6.00;75.70
14585;DHT22;7379;51.506;11.876;2023-02-01T15:23:25;6.00;75.70
14585;DHT22;7379;51.506;11.876;2023-02-01T15:25:52;6.00;75.90
14585;DHT22;7379;51.506;11.876;2023-02-01T15:28:19;6.00;75.90
14585;DHT22;7379;51.506;11.876;2023-02-01T15:30:54;6.00;76.00
14585;DHT22;7379;51.506;11.876;2023-02-01T15:33:24;6.00;76.10
14585;DHT22;7379;51.506;11.876;2023-02-01T15:36:06;6.00;76.10
14585;DHT22;7379;51.506;11.876;2023-02-01T15:38:39;6.00;76.20
14585;DHT22;7379;51.506;11.876;2023-02-01T15:41:11;6.00;76.90
14585;DHT22;7379;51.506;11.876;2023-02-01T15:43:42;5.90;77.50
14585;DHT22;7379;51.506;11.876;2023-02-01T15:46:12;5.90;77.10
14585;DHT22;7379;51.506;11.876;2023-02-01T15:48:45;5.80;76.70
14585;DHT22;7379;51.506;11.876;2023-02-01T15:51:15;5.80;76.30
14585;DHT22;7379;51.506;11.876;2023-02-01T15:53:48;5.80;76.20
14585;DHT22;7379;51.506;11.876;2023-02-01T15:56:21;5.80;76.10
14585;DHT22;7379;51.506;11.876;2023-02-01T15:58:52;5.80;75.90
14585;DHT22;7379;51.506;11.876;2023-02-01T16:01:20;5.70;75.80
14585;DHT22;7379;51.506;11.876;2023-02-01T16:03:48;5.70;75.80
14585;DHT22;7379;51.506;11.876;2023-02-01T16:06:29;5.70;75.80
14585;DHT22;7379;51.506;11.876;2023-02-01T16:09:08;5.70;75.80
14585;DHT22;7379;51.506;11.876;2023-02-01T16:11:41;5.70;75.90
14585;DHT22;7379;51.506;11.876;2023-02-01T16:14:08;5.70;75.80
14585;DHT22;7379;51.506;11.876;2023-02-01T16:16:35;5.70;75.70
14585;DHT22;7379;51.506;11.876;2023-02-01T16:19:03;5.70;75.70
14585;DHT22;7379;51.506;11.876;2023-02-01T16:21:30;5.70;75.80
14585;DHT22;7379;51.506;11.876;2023-02-01T16:23:57;5.60;75.70
14585;DHT22;7379;51.506;11.876;2023-02-01T16:26:24;5.60;75.70
14585;DHT22;7379;51.506;11.876;2023-02-01T16:28:51;5.60;75.80
14585;DHT22;7379;51.506;11.876;2023-02-01T16:31:22;5.50;75.70
14585;DHT22;7379;51.506;11.876;2023-02-01T16:33:51;5.50;75.70
14585;DHT22;7379;51.506;11.876;2023-02-01T16:36:19;5.50;75.70
14585;DHT22;7379;51.506;11.876;2023-02-01T16:38:47;5.50;75.80
14585;DHT22;7379;51.506;11.876;2023-02-01T16:41:16;5.40;75.80
14585;DHT22;7379;51.506;11.876;2023-02-01T16:43:43;5.40;75.90